Time;durP1;ratioP1;P1;durP2;ratioP2;P2;SDS_P1;SDS_P2;PMS_P1;PMS_P2;Temp;Humidity;BMP_temperature;BMP_pressure;BME280_temperature;BME280_humidity;BME280_pressure;Samples;Min_cycle;Max_cycle;Signal;HPM_P1;HPM_P2
2021/05/10 00:01:45;;;;;;;2.93;2.63;;;19.20;77.30;;;;;;4959098;29;20440;-66
2021/05/10 00:04:11;;;;;;;3.47;2.33;;;19.20;77.30;;;;;;4958787;28;20440;-66
2021/05/10 00:06:37;;;;;;;5.03;2.87;;;19.10;77.70;;;;;;4958327;29;20484;-67
2021/05/10 00:09:05;;;;;;;2.50;2.23;;;19.10;77.70;;;;;;4958325;29;20459;-65
2021/05/10 00:11:34;;;;;;;3.20;2.30;;;19.10;78.00;;;;;;4958707;28;20454;-67
2021/05/10 00:14:00;;;;;;;2.90;2.57;;;19.00;78.40;;;;;;4958769;29;20437;-66
2021/05/10 00:16:27;;;;;;;2.53;2.30;;;19.00;78.40;;;;;;4958275;29;20455;-67
2021/05/10 00:18:53;;;;;;;2.83;2.30;;;19.00;78.70;;;;;;4974268;29;20448;-67
2021/05/10 00:21:20;;;;;;;4.27;2.50;;;19.00;79.00;;;;;;4977042;28;20428;-66
2021/05/10 00:23:51;;;;;;;4.43;2.40;;;19.00;79.00;;;;;;4977560;28;20474;-67
2021/05/10 00:26:20;;;;;;;2.80;2.40;;;19.00;79.20;;;;;;4977329;28;20502;-67
2021/05/10 00:28:47;;;;;;;3.80;2.30;;;18.90;79.50;;;;;;4977185;28;20462;-66
2021/05/10 00:31:13;;;;;;;3.57;2.83;;;18.90;79.70;;;;;;4977771;28;20440;-66
2021/05/10 00:33:40;;;;;;;2.80;2.10;;;18.90;79.70;;;;;;4977332;28;20447;-66
2021/05/10 00:36:06;;;;;;;3.47;3.10;;;18.90;80.00;;;;;;4977380;28;20518;-67
2021/05/10 00:38:32;;;;;;;2.63;2.30;;;18.90;80.10;;;;;;4977366;28;20432;-67
2021/05/10 00:40:58;;;;;;;4.30;2.13;;;18.90;80.30;;;;;;4977647;28;20463;-66
2021/05/10 00:43:24;;;;;;;3.80;2.47;;;18.90;80.00;;;;;;4976898;28;20436;-66
2021/05/10 00:45:51;;;;;;;3.77;3.47;;;18.80;80.00;;;;;;4976577;28;20452;-65
2021/05/10 00:48:18;;;;;;;5.43;2.80;;;18.80;80.30;;;;;;4976911;28;20466;-68
2021/05/10 00:50:45;;;;;;;3.27;2.53;;;18.70;80.70;;;;;;4977405;28;20451;-67
2021/05/10 00:53:14;;;;;;;3.20;2.77;;;18.70;81.00;;;;;;4976843;28;20448;-65
2021/05/10 00:55:42;;;;;;;3.40;2.10;;;18.70;81.50;;;;;;4977770;28;20456;-66
2021/05/10 00:58:11;;;;;;;4.63;2.80;;;18.70;81.20;;;;;;4977326;28;20452;-66
2021/05/10 01:00:38;;;;;;;5.00;2.90;;;18.70;81.40;;;;;;4976593;28;20491;-66
2021/05/10 01:03:05;;;;;;;3.50;3.03;;;18.70;81.10;;;;;;4976728;28;20474;-67
2021/05/10 01:05:36;;;;;;;4.33;2.50;;;18.60;81.30;;;;;;4976570;28;20447;-66
2021/05/10 01:08:04;;;;;;;3.00;2.60;;;18.60;82.60;;;;;;4976627;28;20451;-66
2021/05/10 01:10:30;;;;;;;2.67;1.90;;;18.60;82.00;;;;;;4977002;28;20503;-68
2021/05/10 01:12:56;;;;;;;4.00;2.27;;;18.60;82.10;;;;;;4976825;28;20444;-67
2021/05/10 01:15:25;;;;;;;2.70;2.30;;;18.50;82.70;;;;;;4976277;28;20456;-66
2021/05/10 01:17:52;;;;;;;3.00;2.20;;;18.50;82.00;;;;;;4976953;28;20490;-68
2021/05/10 01:20:22;;;;;;;5.73;2.37;;;18.50;82.70;;;;;;4976380;28;20448;-66
2021/05/10 01:22:52;;;;;;;2.40;2.10;;;18.50;83.20;;;;;;4977012;28;20467;-66
2021/05/10 01:25:21;;;;;;;4.53;2.30;;;18.50;82.50;;;;;;4976208;28;20448;-67
2021/05/10 01:27:47;;;;;;;2.77;2.57;;;18.50;83.00;;;;;;4976293;28;20467;-67
2021/05/10 01:30:18;;;;;;;6.07;2.60;;;18.50;83.00;;;;;;4975425;28;20467;-66
2021/05/10 01:32:45;;;;;;;2.97;2.17;;;18.40;82.90;;;;;;4975843;28;20432;-66
2021/05/10 01:35:12;;;;;;;3.60;2.77;;;18.40;83.40;;;;;;4975307;28;20448;-68
2021/05/10 01:37:39;;;;;;;3.50;2.50;;;18.40;83.90;;;;;;4975845;28;20482;-67
2021/05/10 01:40:08;;;;;;;5.53;2.53;;;18.40;83.30;;;;;;4975748;28;20440;-68
2021/05/10 01:42:34;;;;;;;4.43;2.80;;;18.30;83.50;;;;;;4976103;28;20454;-66
2021/05/10 01:45:01;;;;;;;4.10;2.13;;;18.30;84.00;;;;;;4975371;28;20462;-66
2021/05/10 01:47:27;;;;;;;3.30;2.13;;;18.30;84.30;;;;;;4975162;28;20570;-68
2021/05/10 01:49:55;;;;;;;3.50;2.37;;;18.30;84.50;;;;;;4975546;28;20448;-68
2021/05/10 01:52:21;;;;;;;4.50;2.20;;;18.20;84.40;;;;;;4975973;28;20459;-67
2021/05/10 01:54:49;;;;;;;4.67;2.60;;;18.20;84.80;;;;;;4976314;28;20452;-66
2021/05/10 01:57:17;;;;;;;3.40;2.70;;;18.10;84.80;;;;;;4975795;28;20448;-68
2021/05/10 01:59:46;;;;;;;3.20;2.40;;;18.10;85.10;;;;;;4975953;28;20474;-67
2021/05/10 02:02:13;;;;;;;8.40;3.10;;;18.10;85.60;;;;;;4975973;28;20436;-66
2021/05/10 02:05:05;;;;;;;3.40;2.37;;;18.00;85.20;;;;;;4975887;28;20459;-67
2021/05/10 02:07:31;;;;;;;3.07;2.60;;;18.00;86.00;;;;;;4975442;28;20475;-67
2021/05/10 02:09:57;;;;;;;5.00;2.30;;;17.90;85.90;;;;;;4975504;28;20447;-68
2021/05/10 02:12:24;;;;;;;5.70;2.60;;;17.90;86.60;;;;;;4975678;28;20506;-66
2021/05/10 02:14:50;;;;;;;3.00;2.70;;;17.90;86.30;;;;;;4975519;28;21112;-66
2021/05/10 02:17:16;;;;;;;2.80;2.13;;;17.90;86.20;;;;;;4975833;28;20436;-67
2021/05/10 02:19:43;;;;;;;3.20;2.40;;;17.80;86.50;;;;;;4947029;28;20602;-66
2021/05/10 02:22:09;;;;;;;4.83;2.70;;;17.80;87.30;;;;;;4934278;29;20441;-67
2021/05/10 02:24:36;;;;;;;4.70;2.40;;;17.80;87.30;;;;;;4934221;28;20449;-68
2021/05/10 02:27:03;;;;;;;7.73;3.77;;;17.80;88.30;;;;;;4934024;29;20580;-67
2021/05/10 02:29:30;;;;;;;3.93;2.33;;;17.70;87.80;;;;;;4934194;28;20476;-68
2021/05/10 02:31:56;;;;;;;6.77;2.60;;;17.70;89.20;;;;;;4934068;29;20888;-67
2021/05/10 02:34:23;;;;;;;4.20;1.97;;;17.70;88.50;;;;;;4934051;29;20591;-67
2021/05/10 02:36:50;;;;;;;2.80;2.60;;;17.70;88.90;;;;;;4934131;29;20448;-67
2021/05/10 02:39:16;;;;;;;3.63;2.80;;;17.70;88.40;;;;;;4934333;29;20463;-68
2021/05/10 02:41:42;;;;;;;2.30;1.93;;;17.70;88.50;;;;;;4933982;29;20449;-68
2021/05/10 02:44:08;;;;;;;5.60;2.17;;;17.70;89.10;;;;;;4934265;29;20840;-68
2021/05/10 02:46:35;;;;;;;3.40;2.57;;;17.60;89.60;;;;;;4932857;29;20562;-68
2021/05/10 02:49:02;;;;;;;3.27;2.20;;;17.60;89.20;;;;;;4933973;29;20468;-66
2021/05/10 02:51:28;;;;;;;5.13;2.50;;;17.60;89.90;;;;;;4934154;28;20452;-68
2021/05/10 02:53:54;;;;;;;3.73;2.43;;;17.60;89.70;;;;;;4933849;29;20453;-68
2021/05/10 02:56:20;;;;;;;5.60;2.53;;;17.50;90.00;;;;;;4934149;29;20526;-67
2021/05/10 02:58:47;;;;;;;7.07;2.20;;;17.40;90.50;;;;;;4934584;28;20479;-66
2021/05/10 03:01:14;;;;;;;4.40;2.73;;;17.40;90.40;;;;;;4933962;29;20785;-67
2021/05/10 03:03:41;;;;;;;2.40;1.87;;;17.40;90.50;;;;;;4933672;29;20452;-66
2021/05/10 03:06:07;;;;;;;3.33;2.67;;;17.30;90.60;;;;;;4933631;28;20460;-66
2021/05/10 03:08:33;;;;;;;19.20;6.10;;;17.30;90.60;;;;;;4933682;29;20445;-67
2021/05/10 03:10:59;;;;;;;3.77;2.97;;;17.30;90.80;;;;;;4933596;29;20453;-66
2021/05/10 03:13:25;;;;;;;2.97;2.27;;;17.20;91.00;;;;;;4933495;29;20460;-67
2021/05/10 03:15:51;;;;;;;3.20;2.43;;;17.20;91.10;;;;;;4933781;29;20465;-67
2021/05/10 03:18:17;;;;;;;4.30;2.60;;;17.20;91.10;;;;;;4936257;29;20441;-67
2021/05/10 03:20:44;;;;;;;3.03;2.30;;;17.20;91.20;;;;;;4937093;29;20452;-67
2021/05/10 03:23:10;;;;;;;3.70;2.70;;;17.20;91.20;;;;;;4936749;29;20675;-67
2021/05/10 03:25:37;;;;;;;2.93;2.57;;;17.10;91.30;;;;;;4937006;28;20460;-66
2021/05/10 03:28:03;;;;;;;4.13;2.57;;;17.10;91.30;;;;;;4965929;28;20875;-67
2021/05/10 03:30:29;;;;;;;3.10;2.80;;;17.10;91.40;;;;;;4961760;28;20440;-67
2021/05/10 03:32:55;;;;;;;4.00;2.50;;;17.00;91.70;;;;;;4956026;28;20517;-66
2021/05/10 03:35:22;;;;;;;8.10;2.80;;;17.00;91.70;;;;;;4959462;28;20435;-66
2021/05/10 03:37:49;;;;;;;3.70;2.70;;;17.00;91.90;;;;;;4978564;28;20443;-66
2021/05/10 03:40:17;;;;;;;3.60;2.97;;;17.00;91.80;;;;;;4975739;28;20442;-68
2021/05/10 03:42:44;;;;;;;13.83;3.27;;;16.90;92.10;;;;;;4975364;28;20450;-66
2021/05/10 03:45:13;;;;;;;4.63;3.20;;;16.90;92.10;;;;;;4975580;28;20875;-66
2021/05/10 03:47:40;;;;;;;4.50;2.80;;;16.90;92.20;;;;;;4975443;28;20494;-68
2021/05/10 03:50:08;;;;;;;2.83;2.53;;;16.90;92.50;;;;;;4975996;28;20894;-67
2021/05/10 03:52:34;;;;;;;7.67;2.90;;;16.90;92.50;;;;;;4976474;28;20443;-67
2021/05/10 03:55:01;;;;;;;2.97;2.50;;;16.80;92.30;;;;;;4974979;28;20447;-67
2021/05/10 03:57:27;;;;;;;3.57;2.90;;;16.90;92.60;;;;;;4975117;28;20451;-66
2021/05/10 03:59:54;;;;;;;8.63;2.70;;;16.90;92.90;;;;;;4974527;28;20479;-65
2021/05/10 04:02:20;;;;;;;4.57;3.03;;;16.90;92.90;;;;;;4974962;28;20474;-66
2021/05/10 04:04:51;;;;;;;4.73;2.57;;;16.80;92.70;;;;;;4974700;28;20524;-66
2021/05/10 04:10:19;;;;;;;2.73;2.43;;;16.80;92.70;;;;;;4966094;28;20841;-66
2021/05/10 04:15:31;;;;;;;5.80;2.60;;;16.70;92.50;;;;;;4974588;28;20430;-66
2021/05/10 04:17:57;;;;;;;4.97;2.33;;;16.70;92.70;;;;;;4974927;28;20561;-66
2021/05/10 04:20:23;;;;;;;4.10;2.13;;;16.70;92.80;;;;;;4974572;28;20454;-66
2021/05/10 04:22:49;;;;;;;5.00;2.27;;;16.70;93.00;;;;;;4974765;28;20454;-66
2021/05/10 04:25:16;;;;;;;3.77;2.23;;;16.60;92.70;;;;;;4974442;28;20926;-66
2021/05/10 04:27:42;;;;;;;4.17;2.30;;;16.60;93.00;;;;;;4974283;28;20971;-66
2021/05/10 04:30:10;;;;;;;3.63;1.80;;;16.60;92.80;;;;;;4973538;28;20458;-66
2021/05/10 04:32:37;;;;;;;2.80;2.60;;;16.70;93.10;;;;;;4974518;28;20447;-65
2021/05/10 04:35:03;;;;;;;9.73;2.63;;;16.70;92.60;;;;;;4974551;28;20463;-66
2021/05/10 04:37:29;;;;;;;3.40;2.40;;;16.70;92.60;;;;;;4974282;28;20443;-67
2021/05/10 04:39:55;;;;;;;7.83;2.00;;;16.70;93.20;;;;;;4974533;28;20447;-66
2021/05/10 04:42:21;;;;;;;6.37;3.07;;;16.70;92.90;;;;;;4974095;28;20462;-66
2021/05/10 04:44:47;;;;;;;3.07;2.30;;;16.80;92.40;;;;;;4974399;28;20446;-66
2021/05/10 04:47:14;;;;;;;7.03;2.50;;;16.80;92.30;;;;;;4947511;28;20495;-66
2021/05/10 04:49:40;;;;;;;3.30;2.10;;;16.70;92.10;;;;;;4935791;29;20514;-65
2021/05/10 04:52:07;;;;;;;2.83;2.57;;;16.80;92.10;;;;;;4935902;29;20828;-65
2021/05/10 04:54:33;;;;;;;2.53;2.10;;;16.80;92.20;;;;;;4935646;29;20444;-66
2021/05/10 04:56:59;;;;;;;2.47;2.27;;;16.80;91.70;;;;;;4935913;29;20468;-65
2021/05/10 04:59:25;;;;;;;3.40;2.30;;;16.80;91.80;;;;;;4935263;28;20965;-66
2021/05/10 05:01:51;;;;;;;3.57;2.23;;;16.90;91.90;;;;;;4937208;29;20549;-62
2021/05/10 05:04:18;;;;;;;4.27;2.90;;;16.90;91.50;;;;;;4935057;29;20472;-61
2021/05/10 05:06:44;;;;;;;3.83;2.40;;;17.00;91.50;;;;;;4935735;29;20826;-62
2021/05/10 05:09:10;;;;;;;2.87;2.00;;;17.00;91.10;;;;;;4935823;29;20453;-60
2021/05/10 05:11:36;;;;;;;3.37;2.30;;;17.00;90.70;;;;;;4935360;28;20925;-62
2021/05/10 05:14:03;;;;;;;2.40;2.20;;;17.00;90.80;;;;;;4935503;28;20468;-63
2021/05/10 05:16:30;;;;;;;2.80;2.00;;;17.10;91.00;;;;;;4935731;28;20596;-62
2021/05/10 05:18:57;;;;;;;3.27;1.80;;;17.10;90.90;;;;;;4935281;28;20461;-62
2021/05/10 05:21:24;;;;;;;4.23;2.10;;;17.20;90.80;;;;;;4935647;29;20463;-62
2021/05/10 05:23:50;;;;;;;2.80;2.33;;;17.20;90.40;;;;;;4935315;28;20465;-62
2021/05/10 05:26:16;;;;;;;4.63;2.20;;;17.30;90.10;;;;;;4935180;29;20498;-62
2021/05/10 05:28:42;;;;;;;2.63;2.23;;;17.30;89.90;;;;;;4935198;28;20452;-62
2021/05/10 05:31:09;;;;;;;2.57;2.13;;;17.40;90.30;;;;;;4935239;28;20457;-62
2021/05/10 05:33:35;;;;;;;3.07;2.30;;;17.50;90.00;;;;;;4935326;29;20510;-61
2021/05/10 05:36:01;;;;;;;4.17;1.80;;;17.50;89.70;;;;;;4935122;28;20464;-62
2021/05/10 05:38:33;;;;;;;3.43;2.30;;;17.60;90.10;;;;;;4935214;29;20845;-61
2021/05/10 05:40:59;;;;;;;5.07;2.47;;;17.70;89.90;;;;;;4935037;28;20457;-62
2021/05/10 05:43:26;;;;;;;4.10;2.43;;;17.70;89.60;;;;;;4935174;28;20932;-61
2021/05/10 05:45:52;;;;;;;2.83;1.97;;;17.80;90.40;;;;;;4934475;29;20464;-62
2021/05/10 05:48:18;;;;;;;2.53;2.10;;;17.90;89.70;;;;;;4937116;29;20820;-62
2021/05/10 05:50:44;;;;;;;5.83;2.20;;;18.00;89.10;;;;;;4935340;29;20483;-62
2021/05/10 05:53:12;;;;;;;2.47;2.27;;;18.00;87.20;;;;;;4934941;28;20459;-61
2021/05/10 05:55:40;;;;;;;8.57;2.57;;;18.00;86.90;;;;;;4934857;28;20504;-61
2021/05/10 05:58:06;;;;;;;8.10;2.87;;;18.00;87.20;;;;;;4934988;28;20503;-61
2021/05/10 06:00:33;;;;;;;12.77;2.70;;;18.10;87.30;;;;;;4935395;28;20975;-61
2021/05/10 06:02:59;;;;;;;7.93;2.13;;;18.20;86.70;;;;;;4952308;28;20829;-62
2021/05/10 06:05:25;;;;;;;2.30;1.80;;;18.20;86.90;;;;;;4953515;28;20452;-62
2021/05/10 06:07:51;;;;;;;3.23;2.17;;;18.20;85.90;;;;;;4946631;28;20488;-62
2021/05/10 06:10:21;;;;;;;3.03;2.30;;;18.20;85.90;;;;;;4934633;28;20453;-62
2021/05/10 06:12:50;;;;;;;2.73;2.10;;;18.30;85.60;;;;;;4934498;28;20449;-61
2021/05/10 06:15:17;;;;;;;10.20;2.87;;;18.30;85.60;;;;;;4934677;29;20452;-62
2021/05/10 06:17:43;;;;;;;8.40;2.60;;;18.40;85.20;;;;;;4934451;28;20902;-61
2021/05/10 06:20:11;;;;;;;2.23;2.03;;;18.40;84.70;;;;;;4934649;29;20465;-62
2021/05/10 06:22:38;;;;;;;2.93;1.93;;;18.40;83.70;;;;;;4935260;28;20486;-62
2021/05/10 06:25:06;;;;;;;2.73;2.40;;;18.50;83.80;;;;;;4936713;29;20449;-62
2021/05/10 06:27:33;;;;;;;5.00;1.83;;;18.50;83.60;;;;;;4936765;29;20554;-61
2021/05/10 06:30:00;;;;;;;3.87;2.13;;;18.60;83.20;;;;;;4935633;28;20460;-61
2021/05/10 06:32:26;;;;;;;4.57;3.47;;;18.70;83.30;;;;;;4937359;29;20449;-61
2021/05/10 06:34:52;;;;;;;3.30;2.27;;;18.80;83.80;;;;;;4935306;28;20445;-62
2021/05/10 06:37:20;;;;;;;5.47;2.40;;;18.90;83.00;;;;;;4935525;28;20822;-61
2021/05/10 06:39:46;;;;;;;4.13;3.03;;;19.00;82.20;;;;;;4935621;29;20909;-62
2021/05/10 06:42:12;;;;;;;4.87;2.40;;;19.10;82.50;;;;;;4935307;28;20456;-61
2021/05/10 06:44:40;;;;;;;2.77;2.20;;;19.20;81.50;;;;;;4948211;28;20471;-60
2021/05/10 06:47:07;;;;;;;3.50;2.10;;;19.30;81.70;;;;;;4968696;28;20476;-59
2021/05/10 06:49:34;;;;;;;4.50;2.83;;;19.30;80.90;;;;;;4973940;28;20543;-60
2021/05/10 06:52:00;;;;;;;4.37;2.10;;;19.30;81.50;;;;;;4968047;28;20459;-61
2021/05/10 06:54:26;;;;;;;2.70;2.10;;;19.40;81.70;;;;;;4968295;28;20494;-60
2021/05/10 06:56:53;;;;;;;10.13;2.93;;;19.50;81.50;;;;;;4968667;28;20526;-58
2021/05/10 06:59:19;;;;;;;2.70;2.50;;;19.50;81.10;;;;;;4967863;28;20475;-60
2021/05/10 07:01:46;;;;;;;7.30;2.10;;;19.60;81.40;;;;;;4968073;28;20463;-59
2021/05/10 07:04:12;;;;;;;2.43;1.70;;;19.70;80.60;;;;;;4960224;28;20467;-62
2021/05/10 07:06:41;;;;;;;3.33;2.10;;;19.80;80.20;;;;;;4967344;28;20498;-60
2021/05/10 07:09:07;;;;;;;3.80;2.87;;;19.90;80.00;;;;;;4964347;29;20490;-60
2021/05/10 07:11:33;;;;;;;5.43;2.63;;;20.00;79.80;;;;;;4967952;28;20456;-59
2021/05/10 07:14:00;;;;;;;4.13;2.90;;;20.20;79.60;;;;;;4963160;29;20463;-61
2021/05/10 07:16:26;;;;;;;2.80;1.90;;;20.30;79.20;;;;;;4968946;28;20512;-60
2021/05/10 07:18:54;;;;;;;3.60;2.40;;;20.90;77.30;;;;;;4964504;28;20526;-61
2021/05/10 07:21:21;;;;;;;4.10;2.30;;;22.00;73.40;;;;;;4967311;28;20451;-62
2021/05/10 07:23:47;;;;;;;3.93;2.77;;;23.20;69.60;;;;;;4957583;29;20558;-61
2021/05/10 07:26:13;;;;;;;2.70;2.10;;;23.60;67.40;;;;;;4963674;29;20464;-63
2021/05/10 07:28:39;;;;;;;2.50;2.30;;;23.60;67.50;;;;;;4963553;28;20484;-60
2021/05/10 07:31:06;;;;;;;2.80;1.90;;;23.50;66.00;;;;;;4965982;28;20515;-61
2021/05/10 07:33:32;;;;;;;3.17;2.60;;;23.00;67.20;;;;;;4969355;28;20456;-62
2021/05/10 07:35:58;;;;;;;4.80;3.00;;;22.90;67.40;;;;;;4963644;28;20463;-61
2021/05/10 07:38:25;;;;;;;4.87;2.73;;;23.10;68.00;;;;;;4963414;28;20440;-61
2021/05/10 07:40:52;;;;;;;6.70;2.77;;;24.10;66.30;;;;;;4964027;28;20447;-60
2021/05/10 07:43:18;;;;;;;3.20;2.90;;;25.70;62.60;;;;;;4964805;28;20467;-60
2021/05/10 07:45:44;;;;;;;2.43;2.03;;;26.90;58.60;;;;;;4964396;28;20448;-61
2021/05/10 07:48:10;;;;;;;2.83;2.23;;;27.70;55.80;;;;;;4960888;28;20488;-60
2021/05/10 07:50:36;;;;;;;2.90;2.53;;;27.90;54.40;;;;;;4961929;28;20428;-60
2021/05/10 07:53:03;;;;;;;4.07;2.23;;;28.40;53.00;;;;;;4959473;28;20464;-43
2021/05/10 07:55:30;;;;;;;4.57;3.07;;;29.30;51.50;;;;;;4958804;28;20447;-48
2021/05/10 07:57:56;;;;;;;2.90;2.60;;;30.30;48.80;;;;;;4963317;28;20439;-48
2021/05/10 08:00:27;;;;;;;4.00;2.43;;;30.80;47.40;;;;;;4960218;28;20507;-47
2021/05/10 08:02:54;;;;;;;4.30;2.70;;;31.50;45.80;;;;;;4959436;28;20448;-47
2021/05/10 08:05:21;;;;;;;3.07;2.50;;;32.50;44.10;;;;;;4965377;28;20455;-46
2021/05/10 08:07:49;;;;;;;3.10;2.80;;;33.50;42.10;;;;;;4966984;28;20480;-47
2021/05/10 08:10:15;;;;;;;2.60;2.40;;;34.30;40.10;;;;;;4966300;28;20463;-45
2021/05/10 08:12:42;;;;;;;3.60;2.53;;;34.80;38.70;;;;;;4966751;28;20462;-45
2021/05/10 08:15:09;;;;;;;4.07;2.20;;;35.30;38.40;;;;;;4964807;28;20456;-46
2021/05/10 08:17:36;;;;;;;3.90;2.90;;;35.70;37.10;;;;;;4967127;28;20474;-47
2021/05/10 08:20:03;;;;;;;2.50;2.30;;;35.90;36.40;;;;;;4969853;28;20448;-47
2021/05/10 08:22:29;;;;;;;3.10;2.50;;;36.30;35.50;;;;;;4968400;28;20443;-49
2021/05/10 08:24:55;;;;;;;5.10;2.97;;;36.50;34.80;;;;;;4970645;28;20463;-48
2021/05/10 08:27:22;;;;;;;3.33;2.57;;;37.20;34.60;;;;;;4966742;28;20483;-49
2021/05/10 08:29:49;;;;;;;5.30;2.80;;;37.50;33.60;;;;;;4967589;28;20451;-49
2021/05/10 08:32:16;;;;;;;2.70;2.50;;;37.70;33.00;;;;;;4965983;28;20451;-45
2021/05/10 08:34:42;;;;;;;5.33;2.57;;;37.90;32.30;;;;;;4963947;28;20448;-49
2021/05/10 08:37:09;;;;;;;13.53;2.50;;;37.80;32.20;;;;;;4968952;28;20520;-50
2021/05/10 08:39:36;;;;;;;3.50;2.37;;;37.60;32.30;;;;;;4967276;28;20443;-50
2021/05/10 08:42:02;;;;;;;3.77;2.40;;;37.60;32.70;;;;;;4970040;28;20440;-47
2021/05/10 08:44:29;;;;;;;4.50;2.60;;;37.70;32.60;;;;;;4966967;28;20458;-45
2021/05/10 08:47:03;;;;;;;4.30;2.77;;;38.20;31.40;;;;;;4967143;28;20487;-43
2021/05/10 08:49:29;;;;;;;3.20;2.57;;;38.20;31.40;;;;;;4969197;28;20436;-50
2021/05/10 08:51:55;;;;;;;3.03;2.40;;;38.20;31.20;;;;;;4971191;28;20487;-45
2021/05/10 08:54:24;;;;;;;3.30;3.00;;;38.60;31.30;;;;;;4974200;28;20456;-46
2021/05/10 08:56:53;;;;;;;3.23;2.90;;;38.60;30.90;;;;;;4970040;28;20443;-44
2021/05/10 08:59:20;;;;;;;3.63;2.80;;;38.40;30.90;;;;;;4966948;28;20476;-48
2021/05/10 09:01:48;;;;;;;5.50;2.60;;;38.20;31.30;;;;;;4958969;29;20478;-48
2021/05/10 09:04:21;;;;;;;5.03;2.93;;;37.90;31.50;;;;;;4964427;28;20467;-47
2021/05/10 09:06:47;;;;;;;3.83;2.87;;;38.10;31.20;;;;;;4967206;28;20454;-45
2021/05/10 09:09:13;;;;;;;4.90;2.80;;;38.20;31.10;;;;;;4975927;28;20448;-47
2021/05/10 09:11:54;;;;;;;3.93;3.00;;;38.30;30.80;;;;;;4971658;28;20432;-47
2021/05/10 09:14:31;;;;;;;8.27;3.23;;;38.30;31.10;;;;;;4969001;28;20476;-43
2021/05/10 09:17:00;;;;;;;3.60;3.30;;;38.50;31.00;;;;;;4969178;28;20478;-47
2021/05/10 09:19:48;;;;;;;3.70;3.30;;;38.50;31.10;;;;;;4969952;28;20436;-48
2021/05/10 09:22:14;;;;;;;4.13;3.47;;;38.60;31.60;;;;;;4970752;28;20436;-47
2021/05/10 09:24:47;;;;;;;2.93;2.63;;;38.50;31.50;;;;;;4958275;28;20494;-47
2021/05/10 09:27:25;;;;;;;5.40;2.87;;;38.90;30.70;;;;;;4971663;28;20769;-46
2021/05/10 09:30:12;;;;;;;3.93;3.20;;;39.00;30.90;;;;;;4971992;28;20429;-49
2021/05/10 09:32:40;;;;;;;4.23;3.00;;;39.20;30.10;;;;;;4970889;28;20455;-48
2021/05/10 09:35:29;;;;;;;5.80;2.50;;;38.80;30.70;;;;;;4963349;28;20470;-45
2021/05/10 09:38:05;;;;;;;4.03;2.43;;;38.50;31.00;;;;;;4966022;28;20448;-47
2021/05/10 09:40:47;;;;;;;2.50;2.30;;;38.40;31.50;;;;;;4963887;28;20922;-44
2021/05/10 09:43:14;;;;;;;3.70;3.20;;;38.00;30.80;;;;;;4968098;28;20600;-50
2021/05/10 09:45:45;;;;;;;9.00;3.20;;;37.70;31.50;;;;;;4970249;28;20519;-43
2021/05/10 09:48:17;;;;;;;3.17;2.87;;;37.40;32.20;;;;;;4966571;28;20494;-46
2021/05/10 09:50:46;;;;;;;2.70;2.50;;;37.40;31.70;;;;;;4958729;28;20474;-47
2021/05/10 09:53:16;;;;;;;6.40;2.70;;;36.80;32.00;;;;;;4965297;28;20482;-48
2021/05/10 09:55:49;;;;;;;4.03;3.37;;;36.30;33.40;;;;;;4967667;28;20451;-49
2021/05/10 09:58:17;;;;;;;3.50;2.63;;;36.10;33.60;;;;;;4955957;29;20448;-48
2021/05/10 10:00:44;;;;;;;3.63;2.47;;;36.00;33.90;;;;;;4968317;28;20483;-44
2021/05/10 10:03:27;;;;;;;3.73;3.33;;;35.20;34.20;;;;;;4965500;28;21004;-44
2021/05/10 10:05:56;;;;;;;6.10;3.47;;;34.90;35.30;;;;;;4959740;28;20946;-45
2021/05/10 10:08:23;;;;;;;3.70;2.80;;;34.90;35.90;;;;;;4962628;28;20491;-47
2021/05/10 10:10:50;;;;;;;3.87;3.57;;;34.80;35.50;;;;;;4962708;28;20455;-46
2021/05/10 10:13:17;;;;;;;3.70;3.40;;;34.60;35.60;;;;;;4963336;28;20473;-44
2021/05/10 10:15:46;;;;;;;3.27;2.97;;;34.10;36.30;;;;;;4957752;28;20467;-46
2021/05/10 10:18:15;;;;;;;4.33;2.67;;;34.20;36.10;;;;;;4959352;28;20483;-44
2021/05/10 10:20:42;;;;;;;3.13;2.83;;;34.60;36.50;;;;;;4959502;29;20448;-46
2021/05/10 10:23:12;;;;;;;3.90;2.40;;;34.70;35.60;;;;;;4962262;28;20452;-49
2021/05/10 10:25:40;;;;;;;2.80;2.60;;;34.40;35.80;;;;;;4960746;28;20459;-45
2021/05/10 10:28:07;;;;;;;3.57;2.83;;;34.40;36.00;;;;;;4961200;28;20476;-49
2021/05/10 10:30:38;;;;;;;3.70;2.93;;;34.50;36.20;;;;;;4966791;28;20460;-48
2021/05/10 10:33:09;;;;;;;9.80;3.50;;;34.60;36.10;;;;;;4967656;28;20447;-47
2021/05/10 10:35:37;;;;;;;5.00;2.90;;;34.50;36.70;;;;;;4967586;28;20455;-50
2021/05/10 10:38:05;;;;;;;6.80;2.53;;;33.80;36.60;;;;;;4965314;28;20452;-43
2021/05/10 10:40:32;;;;;;;3.33;2.70;;;33.40;37.30;;;;;;4968520;28;20460;-44
2021/05/10 10:43:21;;;;;;;2.63;2.43;;;33.40;38.40;;;;;;4963594;28;20456;-43
2021/05/10 10:46:22;;;;;;;3.70;2.90;;;32.80;38.50;;;;;;4961362;29;20444;-50
2021/05/10 10:48:50;;;;;;;3.93;2.97;;;32.60;38.90;;;;;;4958880;29;20546;-44
2021/05/10 10:51:18;;;;;;;2.80;2.60;;;32.30;38.90;;;;;;4962063;29;20448;-47
2021/05/10 10:53:46;;;;;;;3.30;2.87;;;31.90;39.70;;;;;;4961742;28;20494;-46
2021/05/10 10:56:14;;;;;;;6.03;2.40;;;31.90;39.80;;;;;;4961180;28;20463;-45
2021/05/10 10:58:42;;;;;;;6.80;2.93;;;31.70;40.00;;;;;;4960319;28;20451;-45
2021/05/10 11:01:14;;;;;;;3.20;2.90;;;31.20;40.50;;;;;;4960259;28;20436;-44
2021/05/10 11:03:40;;;;;;;3.87;2.93;;;31.00;41.00;;;;;;4957510;28;20467;-44
2021/05/10 11:06:07;;;;;;;6.50;2.70;;;31.10;41.60;;;;;;4960126;28;20478;-44
2021/05/10 11:08:44;;;;;;;8.00;3.20;;;31.20;42.10;;;;;;4963634;28;21018;-46
2021/05/10 11:11:12;;;;;;;5.00;2.67;;;31.30;40.70;;;;;;4961157;28;20452;-45
2021/05/10 11:13:40;;;;;;;2.87;2.43;;;31.30;40.70;;;;;;4964571;28;20452;-45
2021/05/10 11:16:10;;;;;;;5.43;3.73;;;31.20;41.20;;;;;;4959097;28;20448;-45
2021/05/10 11:18:44;;;;;;;3.60;2.50;;;31.10;41.00;;;;;;4961929;28;20512;-46
2021/05/10 11:21:40;;;;;;;3.10;2.80;;;30.90;41.20;;;;;;4959051;28;20959;-46
2021/05/10 11:24:13;;;;;;;3.17;2.90;;;30.80;41.70;;;;;;4949959;29;20473;-46
2021/05/10 11:26:43;;;;;;;6.30;3.13;;;30.90;42.20;;;;;;4963370;28;20455;-47
2021/05/10 11:29:12;;;;;;;6.43;3.10;;;30.90;41.30;;;;;;4964373;28;20527;-45
2021/05/10 11:31:42;;;;;;;6.07;4.40;;;30.80;40.70;;;;;;4961014;28;20525;-50
2021/05/10 11:34:13;;;;;;;4.00;2.93;;;30.50;41.90;;;;;;4959025;28;20491;-44
2021/05/10 11:36:47;;;;;;;2.33;2.13;;;30.50;41.20;;;;;;4965048;28;20448;-45
2021/05/10 11:39:19;;;;;;;3.97;2.63;;;30.40;41.80;;;;;;4960377;28;20452;-45
2021/05/10 11:41:46;;;;;;;3.10;2.77;;;30.20;41.60;;;;;;4962721;28;20482;-45
2021/05/10 11:44:22;;;;;;;2.70;2.50;;;30.30;41.40;;;;;;4965660;28;20463;-47
2021/05/10 11:46:50;;;;;;;4.23;3.13;;;30.20;41.60;;;;;;4966993;28;20473;-45
2021/05/10 11:49:41;;;;;;;5.90;2.93;;;30.30;41.70;;;;;;4968222;28;20521;-44
2021/05/10 11:52:11;;;;;;;3.67;2.50;;;30.50;41.50;;;;;;4953275;28;20452;-47
2021/05/10 11:54:40;;;;;;;4.73;2.90;;;30.30;41.30;;;;;;4965142;28;20820;-46
2021/05/10 11:57:08;;;;;;;3.20;2.90;;;30.20;41.60;;;;;;4967552;29;20436;-43
2021/05/10 11:59:40;;;;;;;3.03;2.67;;;30.10;41.30;;;;;;4969486;28;20801;-49
2021/05/10 12:02:18;;;;;;;2.67;2.47;;;30.10;41.30;;;;;;4962264;29;20436;-46
2021/05/10 12:04:52;;;;;;;3.50;2.67;;;30.10;41.80;;;;;;4966022;28;20439;-45
2021/05/10 12:07:20;;;;;;;6.87;2.70;;;30.10;41.70;;;;;;4969618;28;20543;-49
2021/05/10 12:09:49;;;;;;;4.00;2.73;;;30.20;42.50;;;;;;4967633;28;20478;-48
2021/05/10 12:12:40;;;;;;;2.90;2.60;;;30.30;42.10;;;;;;4968674;28;20448;-45
2021/05/10 12:15:14;;;;;;;7.73;2.57;;;30.40;42.30;;;;;;4950392;28;20468;-46
2021/05/10 12:17:42;;;;;;;3.90;2.60;;;30.30;41.60;;;;;;4962499;28;20439;-48
2021/05/10 12:20:11;;;;;;;5.93;2.80;;;30.10;41.80;;;;;;4964595;28;20793;-47
2021/05/10 12:22:39;;;;;;;4.87;3.30;;;30.00;42.60;;;;;;4963823;28;20534;-51
2021/05/10 12:25:17;;;;;;;2.90;2.60;;;30.00;43.30;;;;;;4961372;28;20459;-47
2021/05/10 12:27:46;;;;;;;2.87;2.63;;;29.70;43.30;;;;;;4961357;28;20513;-48
2021/05/10 12:30:18;;;;;;;3.07;2.77;;;29.70;43.50;;;;;;4958920;28;20800;-48
2021/05/10 12:32:45;;;;;;;3.50;3.20;;;29.60;43.90;;;;;;4955788;29;20451;-45
2021/05/10 12:35:17;;;;;;;2.93;2.67;;;29.50;44.00;;;;;;4963744;28;20482;-46
2021/05/10 12:37:45;;;;;;;7.40;2.40;;;29.50;43.10;;;;;;4962313;28;20467;-45
2021/05/10 12:40:14;;;;;;;3.40;2.80;;;29.60;42.90;;;;;;4964769;28;20459;-48
2021/05/10 12:42:42;;;;;;;7.23;3.10;;;29.70;43.10;;;;;;4966989;28;20463;-45
2021/05/10 12:45:10;;;;;;;2.97;2.77;;;30.00;43.30;;;;;;4963635;28;20452;-48
2021/05/10 12:47:45;;;;;;;2.67;2.47;;;30.10;42.10;;;;;;4960363;28;20480;-46
2021/05/10 12:50:30;;;;;;;5.97;2.57;;;30.10;42.30;;;;;;4958250;28;20513;-48
2021/05/10 12:52:56;;;;;;;3.83;2.87;;;30.10;42.00;;;;;;4952786;28;20463;-47
2021/05/10 12:55:23;;;;;;;4.80;3.03;;;30.10;42.70;;;;;;4957231;28;20467;-46
2021/05/10 12:57:50;;;;;;;3.07;2.50;;;30.10;42.30;;;;;;4959692;28;20440;-43